sensor_id;sensor_type;location;lat;lon;timestamp;temperature;humidity
4374;DHT22;2201;51.100;6.814;2022-12-07T00:01:47;5.40;98.20
4374;DHT22;2201;51.100;6.814;2022-12-07T00:04:15;5.30;98.20
4374;DHT22;2201;51.100;6.814;2022-12-07T00:06:47;5.30;98.20
4374;DHT22;2201;51.100;6.814;2022-12-07T00:09:18;5.30;98.20
4374;DHT22;2201;51.100;6.814;2022-12-07T00:11:48;5.30;98.20
4374;DHT22;2201;51.100;6.814;2022-12-07T00:14:16;5.30;98.20
4374;DHT22;2201;51.100;6.814;2022-12-07T00:16:45;5.30;98.20
4374;DHT22;2201;51.100;6.814;2022-12-07T00:19:13;5.30;98.20
4374;DHT22;2201;51.100;6.814;2022-12-07T00:21:42;5.30;98.20
4374;DHT22;2201;51.100;6.814;2022-12-07T00:24:12;5.30;98.20
4374;DHT22;2201;51.100;6.814;2022-12-07T00:26:42;5.30;98.20
4374;DHT22;2201;51.100;6.814;2022-12-07T00:29:13;5.30;98.20
4374;DHT22;2201;51.100;6.814;2022-12-07T00:31:44;5.30;98.20
4374;DHT22;2201;51.100;6.814;2022-12-07T00:34:14;5.30;98.20
4374;DHT22;2201;51.100;6.814;2022-12-07T00:36:44;5.30;98.20
4374;DHT22;2201;51.100;6.814;2022-12-07T00:39:12;5.30;98.20
4374;DHT22;2201;51.100;6.814;2022-12-07T00:41:40;5.30;98.20
4374;DHT22;2201;51.100;6.814;2022-12-07T00:44:07;5.30;98.20
4374;DHT22;2201;51.100;6.814;2022-12-07T00:46:34;5.30;98.20
4374;DHT22;2201;51.100;6.814;2022-12-07T00:49:01;5.30;98.20
4374;DHT22;2201;51.100;6.814;2022-12-07T00:51:28;5.30;98.20
4374;DHT22;2201;51.100;6.814;2022-12-07T00:53:55;5.30;98.20
4374;DHT22;2201;51.100;6.814;2022-12-07T00:56:26;5.30;98.20
4374;DHT22;2201;51.100;6.814;2022-12-07T00:58:55;5.30;98.20
4374;DHT22;2201;51.100;6.814;2022-12-07T01:01:24;5.30;98.20
4374;DHT22;2201;51.100;6.814;2022-12-07T01:03:52;5.30;98.20
4374;DHT22;2201;51.100;6.814;2022-12-07T01:06:22;5.30;98.20
4374;DHT22;2201;51.100;6.814;2022-12-07T01:08:50;5.40;98.20
4374;DHT22;2201;51.100;6.814;2022-12-07T01:11:21;5.30;98.20
4374;DHT22;2201;51.100;6.814;2022-12-07T01:13:51;5.30;98.20
4374;DHT22;2201;51.100;6.814;2022-12-07T01:16:20;5.30;98.20
4374;DHT22;2201;51.100;6.814;2022-12-07T01:18:50;5.40;98.20
4374;DHT22;2201;51.100;6.814;2022-12-07T01:21:21;5.30;98.20
4374;DHT22;2201;51.100;6.814;2022-12-07T01:23:49;5.30;98.20
4374;DHT22;2201;51.100;6.814;2022-12-07T01:26:18;5.40;98.20
4374;DHT22;2201;51.100;6.814;2022-12-07T01:28:45;5.30;98.20
4374;DHT22;2201;51.100;6.814;2022-12-07T01:31:16;5.40;98.20
4374;DHT22;2201;51.100;6.814;2022-12-07T01:33:44;5.40;98.20
4374;DHT22;2201;51.100;6.814;2022-12-07T01:36:14;5.30;98.20
4374;DHT22;2201;51.100;6.814;2022-12-07T01:38:42;5.30;98.20
4374;DHT22;2201;51.100;6.814;2022-12-07T01:41:09;5.30;98.20
4374;DHT22;2201;51.100;6.814;2022-12-07T01:43:37;5.30;98.20
4374;DHT22;2201;51.100;6.814;2022-12-07T01:46:04;5.30;98.20
4374;DHT22;2201;51.100;6.814;2022-12-07T01:48:37;5.30;98.20
4374;DHT22;2201;51.100;6.814;2022-12-07T01:51:09;5.30;98.20
4374;DHT22;2201;51.100;6.814;2022-12-07T01:53:40;5.30;98.20
4374;DHT22;2201;51.100;6.814;2022-12-07T01:56:08;5.30;98.20
4374;DHT22;2201;51.100;6.814;2022-12-07T01:58:37;5.30;98.20
4374;DHT22;2201;51.100;6.814;2022-12-07T02:01:04;5.30;98.20
4374;DHT22;2201;51.100;6.814;2022-12-07T02:03:36;5.30;98.20
4374;DHT22;2201;51.100;6.814;2022-12-07T02:06:05;5.30;98.20
4374;DHT22;2201;51.100;6.814;2022-12-07T02:08:32;5.30;98.20
4374;DHT22;2201;51.100;6.814;2022-12-07T02:11:00;5.30;98.20
4374;DHT22;2201;51.100;6.814;2022-12-07T02:13:30;5.30;98.20
4374;DHT22;2201;51.100;6.814;2022-12-07T02:16:08;5.30;98.20
4374;DHT22;2201;51.100;6.814;2022-12-07T02:18:52;5.30;98.20
4374;DHT22;2201;51.100;6.814;2022-12-07T02:21:29;5.30;98.20
4374;DHT22;2201;51.100;6.814;2022-12-07T02:24:22;5.20;98.20
4374;DHT22;2201;51.100;6.814;2022-12-07T02:27:10;5.20;98.20
4374;DHT22;2201;51.100;6.814;2022-12-07T02:29:45;5.30;98.20
4374;DHT22;2201;51.100;6.814;2022-12-07T02:32:17;5.30;98.20
4374;DHT22;2201;51.100;6.814;2022-12-07T02:34:51;5.30;98.20
4374;DHT22;2201;51.100;6.814;2022-12-07T02:37:33;5.30;98.20
4374;DHT22;2201;51.100;6.814;2022-12-07T02:40:06;5.30;98.20
4374;DHT22;2201;51.100;6.814;2022-12-07T02:42:38;5.30;98.20
4374;DHT22;2201;51.100;6.814;2022-12-07T02:45:11;5.20;98.20
4374;DHT22;2201;51.100;6.814;2022-12-07T02:47:39;5.20;98.20
4374;DHT22;2201;51.100;6.814;2022-12-07T02:50:09;5.20;98.20
4374;DHT22;2201;51.100;6.814;2022-12-07T02:52:36;5.20;98.20
4374;DHT22;2201;51.100;6.814;2022-12-07T02:55:04;5.20;98.20
4374;DHT22;2201;51.100;6.814;2022-12-07T02:57:44;5.20;98.20
4374;DHT22;2201;51.100;6.814;2022-12-07T03:00:18;5.20;98.20
4374;DHT22;2201;51.100;6.814;2022-12-07T03:02:52;5.20;98.20
4374;DHT22;2201;51.100;6.814;2022-12-07T03:08:32;5.20;98.20
4374;DHT22;2201;51.100;6.814;2022-12-07T03:11:04;5.20;98.20
4374;DHT22;2201;51.100;6.814;2022-12-07T03:13:38;5.20;98.20
4374;DHT22;2201;51.100;6.814;2022-12-07T03:16:14;5.20;98.20
4374;DHT22;2201;51.100;6.814;2022-12-07T03:18:45;5.20;98.20
4374;DHT22;2201;51.100;6.814;2022-12-07T03:21:16;5.20;98.20
4374;DHT22;2201;51.100;6.814;2022-12-07T03:23:47;5.20;98.20
4374;DHT22;2201;51.100;6.814;2022-12-07T03:26:18;5.20;98.20
4374;DHT22;2201;51.100;6.814;2022-12-07T03:28:50;5.20;98.20
4374;DHT22;2201;51.100;6.814;2022-12-07T03:31:23;5.20;98.20
4374;DHT22;2201;51.100;6.814;2022-12-07T03:33:57;5.20;98.20
4374;DHT22;2201;51.100;6.814;2022-12-07T03:36:32;5.20;98.20
4374;DHT22;2201;51.100;6.814;2022-12-07T03:39:11;5.20;98.20
4374;DHT22;2201;51.100;6.814;2022-12-07T03:41:39;5.20;98.20
4374;DHT22;2201;51.100;6.814;2022-12-07T03:44:07;5.20;98.20
4374;DHT22;2201;51.100;6.814;2022-12-07T03:46:42;5.20;98.20
4374;DHT22;2201;51.100;6.814;2022-12-07T03:49:16;5.20;98.20
4374;DHT22;2201;51.100;6.814;2022-12-07T03:51:47;5.20;98.20
4374;DHT22;2201;51.100;6.814;2022-12-07T03:54:19;5.20;98.20
4374;DHT22;2201;51.100;6.814;2022-12-07T03:56:49;5.20;98.20
4374;DHT22;2201;51.100;6.814;2022-12-07T03:59:17;5.20;98.20
4374;DHT22;2201;51.100;6.814;2022-12-07T04:01:53;5.10;98.20
4374;DHT22;2201;51.100;6.814;2022-12-07T04:04:20;5.10;98.20
4374;DHT22;2201;51.100;6.814;2022-12-07T04:06:47;5.10;98.20
4374;DHT22;2201;51.100;6.814;2022-12-07T04:09:14;5.10;98.20
4374;DHT22;2201;51.100;6.814;2022-12-07T04:11:42;5.10;98.20
4374;DHT22;2201;51.100;6.814;2022-12-07T04:14:10;5.10;98.20
4374;DHT22;2201;51.100;6.814;2022-12-07T04:16:49;5.10;98.20
4374;DHT22;2201;51.100;6.814;2022-12-07T04:19:19;5.10;98.20
4374;DHT22;2201;51.100;6.814;2022-12-07T04:21:47;5.10;98.20
4374;DHT22;2201;51.100;6.814;2022-12-07T04:24:15;5.10;98.20
4374;DHT22;2201;51.100;6.814;2022-12-07T04:26:42;5.00;98.20
4374;DHT22;2201;51.100;6.814;2022-12-07T04:29:13;5.00;98.20
4374;DHT22;2201;51.100;6.814;2022-12-07T04:31:41;4.90;98.20
4374;DHT22;2201;51.100;6.814;2022-12-07T04:34:12;4.90;98.20
4374;DHT22;2201;51.100;6.814;2022-12-07T04:36:39;4.80;98.20
4374;DHT22;2201;51.100;6.814;2022-12-07T04:39:07;4.80;98.20
4374;DHT22;2201;51.100;6.814;2022-12-07T04:41:34;4.80;98.20
4374;DHT22;2201;51.100;6.814;2022-12-07T04:44:03;4.80;98.20
4374;DHT22;2201;51.100;6.814;2022-12-07T04:46:33;4.80;98.20
4374;DHT22;2201;51.100;6.814;2022-12-07T04:48:59;4.80;98.20
4374;DHT22;2201;51.100;6.814;2022-12-07T04:51:29;4.80;98.20
4374;DHT22;2201;51.100;6.814;2022-12-07T04:53:56;4.80;98.20
4374;DHT22;2201;51.100;6.814;2022-12-07T04:56:24;4.90;98.20
4374;DHT22;2201;51.100;6.814;2022-12-07T04:58:52;4.90;98.20
4374;DHT22;2201;51.100;6.814;2022-12-07T05:01:20;4.90;98.20
4374;DHT22;2201;51.100;6.814;2022-12-07T05:03:47;4.90;98.20
4374;DHT22;2201;51.100;6.814;2022-12-07T05:06:14;4.90;98.20
4374;DHT22;2201;51.100;6.814;2022-12-07T05:08:43;4.90;98.20
4374;DHT22;2201;51.100;6.814;2022-12-07T05:11:10;4.80;98.20
4374;DHT22;2201;51.100;6.814;2022-12-07T05:13:58;4.80;98.20
4374;DHT22;2201;51.100;6.814;2022-12-07T05:16:25;4.80;98.20
4374;DHT22;2201;51.100;6.814;2022-12-07T05:18:56;4.80;98.20
4374;DHT22;2201;51.100;6.814;2022-12-07T05:21:23;4.80;98.20
4374;DHT22;2201;51.100;6.814;2022-12-07T05:23:51;4.80;98.20
4374;DHT22;2201;51.100;6.814;2022-12-07T05:26:18;4.80;98.20
4374;DHT22;2201;51.100;6.814;2022-12-07T05:28:49;4.80;98.20
4374;DHT22;2201;51.100;6.814;2022-12-07T05:31:16;4.80;98.20
4374;DHT22;2201;51.100;6.814;2022-12-07T05:33:42;4.80;98.20
4374;DHT22;2201;51.100;6.814;2022-12-07T05:36:09;4.80;98.20
4374;DHT22;2201;51.100;6.814;2022-12-07T05:38:36;4.80;98.20
4374;DHT22;2201;51.100;6.814;2022-12-07T05:41:06;4.70;98.20
4374;DHT22;2201;51.100;6.814;2022-12-07T05:43:53;4.70;98.20
4374;DHT22;2201;51.100;6.814;2022-12-07T05:46:20;4.70;98.20
4374;DHT22;2201;51.100;6.814;2022-12-07T05:48:47;4.70;98.20
4374;DHT22;2201;51.100;6.814;2022-12-07T05:51:14;4.70;98.20
4374;DHT22;2201;51.100;6.814;2022-12-07T05:53:40;4.70;98.20
4374;DHT22;2201;51.100;6.814;2022-12-07T05:56:09;4.70;98.20
4374;DHT22;2201;51.100;6.814;2022-12-07T05:58:36;4.60;98.20
4374;DHT22;2201;51.100;6.814;2022-12-07T06:01:20;4.60;98.20
4374;DHT22;2201;51.100;6.814;2022-12-07T06:03:46;4.60;98.20
4374;DHT22;2201;51.100;6.814;2022-12-07T06:06:13;4.60;98.20
4374;DHT22;2201;51.100;6.814;2022-12-07T06:08:40;4.60;98.20
4374;DHT22;2201;51.100;6.814;2022-12-07T06:11:08;4.60;98.20
4374;DHT22;2201;51.100;6.814;2022-12-07T06:13:53;4.50;98.20
4374;DHT22;2201;51.100;6.814;2022-12-07T06:16:19;4.60;98.20
4374;DHT22;2201;51.100;6.814;2022-12-07T06:18:46;4.60;98.20
4374;DHT22;2201;51.100;6.814;2022-12-07T06:21:13;4.60;98.20
4374;DHT22;2201;51.100;6.814;2022-12-07T06:23:40;4.60;98.20
4374;DHT22;2201;51.100;6.814;2022-12-07T06:26:08;4.60;98.20
4374;DHT22;2201;51.100;6.814;2022-12-07T06:28:35;4.60;98.20
4374;DHT22;2201;51.100;6.814;2022-12-07T06:31:02;4.60;98.20
4374;DHT22;2201;51.100;6.814;2022-12-07T06:33:30;4.60;98.20
4374;DHT22;2201;51.100;6.814;2022-12-07T06:35:57;4.70;98.20
4374;DHT22;2201;51.100;6.814;2022-12-07T06:38:24;4.70;98.20
4374;DHT22;2201;51.100;6.814;2022-12-07T06:40:51;4.70;98.20
4374;DHT22;2201;51.100;6.814;2022-12-07T06:43:22;4.70;98.20
4374;DHT22;2201;51.100;6.814;2022-12-07T06:45:48;4.70;98.20
4374;DHT22;2201;51.100;6.814;2022-12-07T06:48:16;4.70;98.20
4374;DHT22;2201;51.100;6.814;2022-12-07T06:50:44;4.70;98.20
4374;DHT22;2201;51.100;6.814;2022-12-07T06:53:11;4.70;98.20
4374;DHT22;2201;51.100;6.814;2022-12-07T06:55:38;4.70;98.20
4374;DHT22;2201;51.100;6.814;2022-12-07T06:58:05;4.70;98.20
4374;DHT22;2201;51.100;6.814;2022-12-07T07:00:34;4.70;98.20
4374;DHT22;2201;51.100;6.814;2022-12-07T07:03:01;4.70;98.20
4374;DHT22;2201;51.100;6.814;2022-12-07T07:05:28;4.70;98.20
4374;DHT22;2201;51.100;6.814;2022-12-07T07:07:57;4.70;98.20
4374;DHT22;2201;51.100;6.814;2022-12-07T07:10:23;4.70;98.20
4374;DHT22;2201;51.100;6.814;2022-12-07T07:12:50;4.70;98.20
4374;DHT22;2201;51.100;6.814;2022-12-07T07:15:17;4.70;98.20
4374;DHT22;2201;51.100;6.814;2022-12-07T07:17:46;4.70;98.20
4374;DHT22;2201;51.100;6.814;2022-12-07T07:20:13;4.70;98.20
4374;DHT22;2201;51.100;6.814;2022-12-07T07:22:40;4.70;98.20
4374;DHT22;2201;51.100;6.814;2022-12-07T07:25:07;4.70;98.20
4374;DHT22;2201;51.100;6.814;2022-12-07T07:27:34;4.70;98.20
4374;DHT22;2201;51.100;6.814;2022-12-07T07:30:01;4.70;98.20
4374;DHT22;2201;51.100;6.814;2022-12-07T07:32:28;4.70;98.20
4374;DHT22;2201;51.100;6.814;2022-12-07T07:34:56;4.70;98.20
4374;DHT22;2201;51.100;6.814;2022-12-07T07:37:23;4.70;98.20
4374;DHT22;2201;51.100;6.814;2022-12-07T07:39:50;4.70;98.20
4374;DHT22;2201;51.100;6.814;2022-12-07T07:42:17;4.80;98.20
4374;DHT22;2201;51.100;6.814;2022-12-07T07:44:44;4.80;98.20
4374;DHT22;2201;51.100;6.814;2022-12-07T07:47:11;4.70;98.20
4374;DHT22;2201;51.100;6.814;2022-12-07T07:49:37;4.70;98.20
4374;DHT22;2201;51.100;6.814;2022-12-07T07:52:06;4.70;98.20
4374;DHT22;2201;51.100;6.814;2022-12-07T07:54:33;4.70;98.20
4374;DHT22;2201;51.100;6.814;2022-12-07T07:57:00;4.70;98.20
4374;DHT22;2201;51.100;6.814;2022-12-07T07:59:26;4.70;98.20
4374;DHT22;2201;51.100;6.814;2022-12-07T08:01:53;4.80;98.20
4374;DHT22;2201;51.100;6.814;2022-12-07T08:04:20;4.80;98.20
4374;DHT22;2201;51.100;6.814;2022-12-07T08:06:47;4.80;98.20
4374;DHT22;2201;51.100;6.814;2022-12-07T08:09:15;4.80;98.20
4374;DHT22;2201;51.100;6.814;2022-12-07T08:11:42;4.80;98.20
4374;DHT22;2201;51.100;6.814;2022-12-07T08:14:09;4.80;98.20
4374;DHT22;2201;51.100;6.814;2022-12-07T08:16:37;4.80;98.20
4374;DHT22;2201;51.100;6.814;2022-12-07T08:19:04;4.80;98.20
4374;DHT22;2201;51.100;6.814;2022-12-07T08:21:31;4.80;98.20
4374;DHT22;2201;51.100;6.814;2022-12-07T08:23:58;4.80;98.20
4374;DHT22;2201;51.100;6.814;2022-12-07T08:26:26;4.80;98.20
4374;DHT22;2201;51.100;6.814;2022-12-07T08:28:53;4.80;98.20
4374;DHT22;2201;51.100;6.814;2022-12-07T08:31:20;4.90;98.20
4374;DHT22;2201;51.100;6.814;2022-12-07T08:33:48;4.90;98.20
4374;DHT22;2201;51.100;6.814;2022-12-07T08:36:15;4.90;98.20
4374;DHT22;2201;51.100;6.814;2022-12-07T08:38:43;4.90;98.20
4374;DHT22;2201;51.100;6.814;2022-12-07T08:41:09;5.00;98.20
4374;DHT22;2201;51.100;6.814;2022-12-07T08:43:38;5.00;98.20
4374;DHT22;2201;51.100;6.814;2022-12-07T08:46:08;5.00;98.20
4374;DHT22;2201;51.100;6.814;2022-12-07T08:48:39;5.10;98.20
4374;DHT22;2201;51.100;6.814;2022-12-07T08:51:07;5.10;98.20
4374;DHT22;2201;51.100;6.814;2022-12-07T08:53:34;5.20;98.20
4374;DHT22;2201;51.100;6.814;2022-12-07T08:56:02;5.20;98.20
4374;DHT22;2201;51.100;6.814;2022-12-07T08:58:29;5.20;98.20
4374;DHT22;2201;51.100;6.814;2022-12-07T09:00:57;5.30;98.20
4374;DHT22;2201;51.100;6.814;2022-12-07T09:03:24;5.30;98.20
4374;DHT22;2201;51.100;6.814;2022-12-07T09:05:52;5.40;98.20
4374;DHT22;2201;51.100;6.814;2022-12-07T09:08:19;5.40;98.20
4374;DHT22;2201;51.100;6.814;2022-12-07T09:10:46;5.40;98.20
4374;DHT22;2201;51.100;6.814;2022-12-07T09:13:13;5.40;98.20
4374;DHT22;2201;51.100;6.814;2022-12-07T09:15:40;5.40;98.20
4374;DHT22;2201;51.100;6.814;2022-12-07T09:18:08;5.40;98.20
4374;DHT22;2201;51.100;6.814;2022-12-07T09:20:35;5.50;98.20
4374;DHT22;2201;51.100;6.814;2022-12-07T09:23:02;5.50;98.20
4374;DHT22;2201;51.100;6.814;2022-12-07T09:25:28;5.50;98.20
4374;DHT22;2201;51.100;6.814;2022-12-07T09:27:56;5.60;98.20
4374;DHT22;2201;51.100;6.814;2022-12-07T09:30:23;5.60;98.20
4374;DHT22;2201;51.100;6.814;2022-12-07T09:32:49;5.70;98.20
4374;DHT22;2201;51.100;6.814;2022-12-07T09:35:18;5.80;98.20
4374;DHT22;2201;51.100;6.814;2022-12-07T09:37:44;5.90;98.20
4374;DHT22;2201;51.100;6.814;2022-12-07T09:40:12;5.90;98.20
4374;DHT22;2201;51.100;6.814;2022-12-07T09:42:43;5.90;98.20
4374;DHT22;2201;51.100;6.814;2022-12-07T09:45:14;6.00;98.20
4374;DHT22;2201;51.100;6.814;2022-12-07T09:47:42;6.00;98.20
4374;DHT22;2201;51.100;6.814;2022-12-07T09:50:14;6.00;98.20
4374;DHT22;2201;51.100;6.814;2022-12-07T09:52:43;6.00;98.20
4374;DHT22;2201;51.100;6.814;2022-12-07T09:55:14;6.10;98.20
4374;DHT22;2201;51.100;6.814;2022-12-07T09:57:42;6.20;98.20
4374;DHT22;2201;51.100;6.814;2022-12-07T10:00:13;6.20;98.20
4374;DHT22;2201;51.100;6.814;2022-12-07T10:02:42;6.30;98.20
4374;DHT22;2201;51.100;6.814;2022-12-07T10:05:13;6.30;98.20
4374;DHT22;2201;51.100;6.814;2022-12-07T10:07:42;6.30;98.20
4374;DHT22;2201;51.100;6.814;2022-12-07T10:10:14;6.30;98.20
4374;DHT22;2201;51.100;6.814;2022-12-07T10:12:57;6.30;98.20
4374;DHT22;2201;51.100;6.814;2022-12-07T10:15:36;6.30;98.20
4374;DHT22;2201;51.100;6.814;2022-12-07T10:18:18;6.30;98.20
4374;DHT22;2201;51.100;6.814;2022-12-07T10:20:46;6.30;98.20
4374;DHT22;2201;51.100;6.814;2022-12-07T10:23:16;6.30;98.20
4374;DHT22;2201;51.100;6.814;2022-12-07T10:25:44;6.30;98.20
4374;DHT22;2201;51.100;6.814;2022-12-07T10:28:13;6.30;98.20
4374;DHT22;2201;51.100;6.814;2022-12-07T10:30:49;6.30;98.20
4374;DHT22;2201;51.100;6.814;2022-12-07T10:33:34;6.30;98.20
4374;DHT22;2201;51.100;6.814;2022-12-07T10:36:16;6.30;98.20
4374;DHT22;2201;51.100;6.814;2022-12-07T10:38:47;6.30;98.20
4374;DHT22;2201;51.100;6.814;2022-12-07T10:41:14;6.40;98.20
4374;DHT22;2201;51.100;6.814;2022-12-07T10:43:49;6.40;98.20
4374;DHT22;2201;51.100;6.814;2022-12-07T10:46:46;6.40;98.20
4374;DHT22;2201;51.100;6.814;2022-12-07T10:49:43;6.50;98.20
4374;DHT22;2201;51.100;6.814;2022-12-07T10:52:21;6.50;98.20
4374;DHT22;2201;51.100;6.814;2022-12-07T10:55:06;6.60;98.20
4374;DHT22;2201;51.100;6.814;2022-12-07T10:57:43;6.60;98.20
4374;DHT22;2201;51.100;6.814;2022-12-07T11:00:17;6.60;98.20
4374;DHT22;2201;51.100;6.814;2022-12-07T11:05:46;6.70;98.20
4374;DHT22;2201;51.100;6.814;2022-12-07T11:08:23;6.70;98.20
4374;DHT22;2201;51.100;6.814;2022-12-07T11:11:01;6.70;98.20
4374;DHT22;2201;51.100;6.814;2022-12-07T11:13:39;6.70;98.20
4374;DHT22;2201;51.100;6.814;2022-12-07T11:16:21;6.70;98.20
4374;DHT22;2201;51.100;6.814;2022-12-07T11:18:59;6.70;98.20
4374;DHT22;2201;51.100;6.814;2022-12-07T11:21:39;6.80;98.20
4374;DHT22;2201;51.100;6.814;2022-12-07T11:24:13;6.90;98.20
4374;DHT22;2201;51.100;6.814;2022-12-07T11:27:06;6.90;98.20
4374;DHT22;2201;51.100;6.814;2022-12-07T11:29:50;6.90;98.20
4374;DHT22;2201;51.100;6.814;2022-12-07T11:32:31;6.90;98.20
4374;DHT22;2201;51.100;6.814;2022-12-07T11:35:08;6.90;98.20
4374;DHT22;2201;51.100;6.814;2022-12-07T11:37:38;6.90;98.20
4374;DHT22;2201;51.100;6.814;2022-12-07T11:40:15;6.90;98.20
4374;DHT22;2201;51.100;6.814;2022-12-07T11:42:50;6.90;98.20
4374;DHT22;2201;51.100;6.814;2022-12-07T11:45:22;7.00;98.20
4374;DHT22;2201;51.100;6.814;2022-12-07T11:47:54;7.10;98.20
4374;DHT22;2201;51.100;6.814;2022-12-07T11:50:27;7.20;98.20
4374;DHT22;2201;51.100;6.814;2022-12-07T11:52:58;7.20;98.20
4374;DHT22;2201;51.100;6.814;2022-12-07T11:55:30;7.30;98.20
4374;DHT22;2201;51.100;6.814;2022-12-07T11:58:04;7.40;98.20
4374;DHT22;2201;51.100;6.814;2022-12-07T12:00:32;7.50;98.20
4374;DHT22;2201;51.100;6.814;2022-12-07T12:03:02;7.60;98.20
4374;DHT22;2201;51.100;6.814;2022-12-07T12:05:32;7.70;98.20
4374;DHT22;2201;51.100;6.814;2022-12-07T12:08:03;7.80;98.20
4374;DHT22;2201;51.100;6.814;2022-12-07T12:10:42;7.80;98.20
4374;DHT22;2201;51.100;6.814;2022-12-07T12:16:28;7.90;98.20
4374;DHT22;2201;51.100;6.814;2022-12-07T12:19:14;8.00;98.20
4374;DHT22;2201;51.100;6.814;2022-12-07T12:21:56;8.00;98.20
4374;DHT22;2201;51.100;6.814;2022-12-07T12:24:26;8.00;98.20
4374;DHT22;2201;51.100;6.814;2022-12-07T12:26:58;8.00;98.20
4374;DHT22;2201;51.100;6.814;2022-12-07T12:29:31;7.90;98.20
4374;DHT22;2201;51.100;6.814;2022-12-07T12:32:11;7.80;98.20
4374;DHT22;2201;51.100;6.814;2022-12-07T12:34:41;7.80;98.20
4374;DHT22;2201;51.100;6.814;2022-12-07T12:37:38;7.70;98.20
4374;DHT22;2201;51.100;6.814;2022-12-07T12:40:42;7.70;98.20
4374;DHT22;2201;51.100;6.814;2022-12-07T12:46:53;7.90;98.20
4374;DHT22;2201;51.100;6.814;2022-12-07T12:52:58;8.30;98.20
4374;DHT22;2201;51.100;6.814;2022-12-07T12:58:46;8.60;98.20
4374;DHT22;2201;51.100;6.814;2022-12-07T13:01:44;8.60;98.20
4374;DHT22;2201;51.100;6.814;2022-12-07T13:04:25;8.40;98.20
4374;DHT22;2201;51.100;6.814;2022-12-07T13:06:53;8.40;98.20
4374;DHT22;2201;51.100;6.814;2022-12-07T13:09:23;8.30;98.20
4374;DHT22;2201;51.100;6.814;2022-12-07T13:11:58;8.20;98.20
4374;DHT22;2201;51.100;6.814;2022-12-07T13:14:53;8.10;98.20
4374;DHT22;2201;51.100;6.814;2022-12-07T13:20:52;8.00;98.20
4374;DHT22;2201;51.100;6.814;2022-12-07T13:26:24;7.90;98.20
4374;DHT22;2201;51.100;6.814;2022-12-07T13:29:07;7.70;98.20
4374;DHT22;2201;51.100;6.814;2022-12-07T13:31:38;7.70;98.20
4374;DHT22;2201;51.100;6.814;2022-12-07T13:34:31;7.70;98.20
4374;DHT22;2201;51.100;6.814;2022-12-07T13:36:59;7.60;98.20
4374;DHT22;2201;51.100;6.814;2022-12-07T13:39:27;7.50;98.20
4374;DHT22;2201;51.100;6.814;2022-12-07T13:41:55;7.50;98.20
4374;DHT22;2201;51.100;6.814;2022-12-07T13:44:24;7.50;98.20
4374;DHT22;2201;51.100;6.814;2022-12-07T13:46:59;7.50;98.20
4374;DHT22;2201;51.100;6.814;2022-12-07T13:49:31;7.50;98.20
4374;DHT22;2201;51.100;6.814;2022-12-07T13:52:13;7.50;98.20
4374;DHT22;2201;51.100;6.814;2022-12-07T13:54:44;7.50;98.20
4374;DHT22;2201;51.100;6.814;2022-12-07T13:57:12;7.40;98.20
4374;DHT22;2201;51.100;6.814;2022-12-07T13:59:39;7.40;98.20
4374;DHT22;2201;51.100;6.814;2022-12-07T14:02:18;7.40;98.20
4374;DHT22;2201;51.100;6.814;2022-12-07T14:04:48;7.40;98.20
4374;DHT22;2201;51.100;6.814;2022-12-07T14:07:20;7.30;98.20
4374;DHT22;2201;51.100;6.814;2022-12-07T14:09:56;7.30;98.20
4374;DHT22;2201;51.100;6.814;2022-12-07T14:12:23;7.20;98.20
4374;DHT22;2201;51.100;6.814;2022-12-07T14:14:51;7.20;98.20
4374;DHT22;2201;51.100;6.814;2022-12-07T14:17:19;7.20;98.20
4374;DHT22;2201;51.100;6.814;2022-12-07T14:19:51;7.10;98.20
4374;DHT22;2201;51.100;6.814;2022-12-07T14:22:26;7.10;98.20
4374;DHT22;2201;51.100;6.814;2022-12-07T14:27:51;7.00;98.20
4374;DHT22;2201;51.100;6.814;2022-12-07T14:30:21;7.00;98.20
4374;DHT22;2201;51.100;6.814;2022-12-07T14:32:52;7.00;98.20
4374;DHT22;2201;51.100;6.814;2022-12-07T14:35:21;7.00;98.20
4374;DHT22;2201;51.100;6.814;2022-12-07T14:37:48;7.00;98.20
4374;DHT22;2201;51.100;6.814;2022-12-07T14:40:17;7.00;98.20
4374;DHT22;2201;51.100;6.814;2022-12-07T14:42:46;6.90;98.20
4374;DHT22;2201;51.100;6.814;2022-12-07T14:45:15;6.90;98.20
4374;DHT22;2201;51.100;6.814;2022-12-07T14:47:43;6.90;98.20
4374;DHT22;2201;51.100;6.814;2022-12-07T14:50:12;6.90;98.20
4374;DHT22;2201;51.100;6.814;2022-12-07T14:52:42;6.80;98.20
4374;DHT22;2201;51.100;6.814;2022-12-07T14:55:16;6.80;98.20
4374;DHT22;2201;51.100;6.814;2022-12-07T14:57:44;6.70;98.20
4374;DHT22;2201;51.100;6.814;2022-12-07T15:00:14;6.60;98.20
4374;DHT22;2201;51.100;6.814;2022-12-07T15:02:42;6.50;98.20
4374;DHT22;2201;51.100;6.814;2022-12-07T15:05:09;6.50;98.20
4374;DHT22;2201;51.100;6.814;2022-12-07T15:07:36;6.50;98.20
4374;DHT22;2201;51.100;6.814;2022-12-07T15:10:06;6.40;98.20
4374;DHT22;2201;51.100;6.814;2022-12-07T15:12:36;6.40;98.20
4374;DHT22;2201;51.100;6.814;2022-12-07T15:15:04;6.30;98.20
4374;DHT22;2201;51.100;6.814;2022-12-07T15:17:31;6.20;98.20
4374;DHT22;2201;51.100;6.814;2022-12-07T15:19:58;6.20;98.20
4374;DHT22;2201;51.100;6.814;2022-12-07T15:22:24;6.10;98.20
4374;DHT22;2201;51.100;6.814;2022-12-07T15:24:51;6.00;98.20
4374;DHT22;2201;51.100;6.814;2022-12-07T15:27:19;5.90;98.20
4374;DHT22;2201;51.100;6.814;2022-12-07T15:29:46;5.90;98.20
4374;DHT22;2201;51.100;6.814;2022-12-07T15:32:13;5.80;98.20
4374;DHT22;2201;51.100;6.814;2022-12-07T15:34:40;5.80;98.20
4374;DHT22;2201;51.100;6.814;2022-12-07T15:37:07;5.70;98.20
4374;DHT22;2201;51.100;6.814;2022-12-07T15:39:35;5.60;98.20
4374;DHT22;2201;51.100;6.814;2022-12-07T15:42:02;5.60;98.20
4374;DHT22;2201;51.100;6.814;2022-12-07T15:44:30;5.50;98.20
4374;DHT22;2201;51.100;6.814;2022-12-07T15:47:14;5.50;98.20
4374;DHT22;2201;51.100;6.814;2022-12-07T15:49:41;5.40;98.20
4374;DHT22;2201;51.100;6.814;2022-12-07T15:52:08;5.30;98.20
4374;DHT22;2201;51.100;6.814;2022-12-07T15:54:35;5.30;98.20
4374;DHT22;2201;51.100;6.814;2022-12-07T15:57:02;5.30;98.20
4374;DHT22;2201;51.100;6.814;2022-12-07T15:59:31;5.20;98.20
4374;DHT22;2201;51.100;6.814;2022-12-07T16:02:00;5.20;98.20
4374;DHT22;2201;51.100;6.814;2022-12-07T16:04:28;5.20;98.20
4374;DHT22;2201;51.100;6.814;2022-12-07T16:06:55;5.20;98.20
4374;DHT22;2201;51.100;6.814;2022-12-07T16:09:21;5.20;98.20
4374;DHT22;2201;51.100;6.814;2022-12-07T16:11:48;5.20;98.20
4374;DHT22;2201;51.100;6.814;2022-12-07T16:14:16;5.20;98.20
4374;DHT22;2201;51.100;6.814;2022-12-07T16:16:44;5.20;98.20
4374;DHT22;2201;51.100;6.814;2022-12-07T16:19:11;5.20;98.20
4374;DHT22;2201;51.100;6.814;2022-12-07T16:21:38;5.20;98.20
4374;DHT22;2201;51.100;6.814;2022-12-07T16:24:06;5.30;98.20
4374;DHT22;2201;51.100;6.814;2022-12-07T16:26:33;5.30;98.20
4374;DHT22;2201;51.100;6.814;2022-12-07T16:29:00;5.30;98.20
4374;DHT22;2201;51.100;6.814;2022-12-07T16:31:27;5.30;98.20
4374;DHT22;2201;51.100;6.814;2022-12-07T16:33:57;5.30;98.20
4374;DHT22;2201;51.100;6.814;2022-12-07T16:36:25;5.30;98.20
4374;DHT22;2201;51.100;6.814;2022-12-07T16:38:53;5.30;98.20
4374;DHT22;2201;51.100;6.814;2022-12-07T16:41:20;5.30;98.20
4374;DHT22;2201;51.100;6.814;2022-12-07T16:43:47;5.30;98.20
4374;DHT22;2201;51.100;6.814;2022-12-07T16:46:14;5.30;98.20
4374;DHT22;2201;51.100;6.814;2022-12-07T16:48:41;5.40;98.20
4374;DHT22;2201;51.100;6.814;2022-12-07T16:51:11;5.40;98.20
4374;DHT22;2201;51.100;6.814;2022-12-07T16:53:40;5.40;98.20
4374;DHT22;2201;51.100;6.814;2022-12-07T16:56:10;5.40;98.20
4374;DHT22;2201;51.100;6.814;2022-12-07T16:58:37;5.40;98.20
4374;DHT22;2201;51.100;6.814;2022-12-07T17:01:09;5.40;98.20
4374;DHT22;2201;51.100;6.814;2022-12-07T17:03:36;5.30;98.20
4374;DHT22;2201;51.100;6.814;2022-12-07T17:06:03;5.40;98.20
4374;DHT22;2201;51.100;6.814;2022-12-07T17:08:31;5.40;98.20